createdAt,value
2023-04-05T00:00:40.320Z,6.5
2023-04-05T00:15:40.272Z,6.2
2023-04-05T00:30:46.293Z,6.3
2023-04-05T00:45:41.960Z,6
2023-04-05T01:00:42.523Z,6.2
2023-04-05T01:15:42.559Z,6.3
2023-04-05T01:30:43.635Z,7.2
2023-04-05T01:45:43.561Z,7.3
2023-04-05T02:00:47.773Z,7.3
2023-04-05T02:15:45.770Z,7
2023-04-05T02:30:46.298Z,7.1
2023-04-05T02:45:47.429Z,7.7
2023-04-05T03:00:48.044Z,7.1
2023-04-05T03:15:48.556Z,7.6
2023-04-05T03:30:48.850Z,24.1
2023-04-05T03:45:49.557Z,7.3
2023-04-05T04:00:49.829Z,7.6
2023-04-05T04:15:51.749Z,7.7
2023-04-05T04:30:51.910Z,11.9
2023-04-05T04:42:02.819Z,8.3
2023-04-05T04:57:02.862Z,8.8
2023-04-05T05:12:03.883Z,9.5
2023-04-05T05:27:07.241Z,9.4
2023-04-05T05:42:05.454Z,8.4
2023-04-05T05:57:05.759Z,8.1
2023-04-05T06:12:06.696Z,8.9
2023-04-05T06:27:07.401Z,9.3
2023-04-05T06:42:08.251Z,8.7
2023-04-05T06:57:09.104Z,9.2
2023-04-05T07:12:09.383Z,11
2023-04-05T07:27:10.133Z,7.9
2023-04-05T07:42:10.597Z,8.1
2023-04-05T07:57:10.865Z,8.4
2023-04-05T08:12:12.172Z,7.1
2023-04-05T08:27:12.271Z,6.7
2023-04-05T08:42:13.299Z,6.9
2023-04-05T08:57:13.797Z,6.7
2023-04-05T09:12:14.654Z,7.6
2023-04-05T09:27:16.407Z,6.9
2023-04-05T09:42:16.126Z,6.6
2023-04-05T09:57:16.957Z,7.2
2023-04-05T10:12:18.136Z,7.4
2023-04-05T10:27:18.840Z,6.9
2023-04-05T10:42:19.057Z,7.1
2023-04-05T10:57:24.535Z,6.8
2023-04-05T11:12:20.208Z,6.4
2023-04-05T11:27:21.205Z,5.5
2023-04-05T11:42:21.736Z,5.8
2023-04-05T11:57:22.046Z,5.7
2023-04-05T12:12:27.511Z,5.7
2023-04-05T12:27:23.846Z,5.6
2023-04-05T12:42:23.295Z,6.1
2023-04-05T12:57:24.353Z,5.8
2023-04-05T13:12:26.414Z,5.9
2023-04-05T13:27:25.125Z,6.1
2023-04-05T13:42:26.246Z,6
2023-04-05T13:57:27.010Z,6.4
2023-04-05T14:12:27.586Z,6.6
2023-04-05T14:27:28.094Z,5.8
2023-04-05T14:42:50.467Z,5.8
2023-04-05T14:57:29.269Z,6
2023-04-05T15:12:31.225Z,6.3
2023-04-05T15:27:31.130Z,6.2
2023-04-05T15:42:32.026Z,6.4
2023-04-05T15:57:32.400Z,6.2
2023-04-05T16:12:35.876Z,6.8
2023-04-05T16:27:33.950Z,7.9
2023-04-05T16:42:34.867Z,6.7
2023-04-05T16:57:34.914Z,7.5
2023-04-05T17:12:35.396Z,7.4
2023-04-05T17:27:36.257Z,8.1
2023-04-05T17:42:36.496Z,8.3
2023-04-05T17:57:37.411Z,9.7
2023-04-05T18:12:37.560Z,9.6
2023-04-05T18:27:37.839Z,9.4
2023-04-05T18:42:39.120Z,12.9
2023-04-05T18:57:39.742Z,9.7
2023-04-05T19:12:40.363Z,11.2
2023-04-05T19:27:46.338Z,13.6
2023-04-05T19:42:41.522Z,14.3
2023-04-05T19:57:42.891Z,12.1
2023-04-05T20:12:43.752Z,12.4
2023-04-05T20:27:43.498Z,12.6
2023-04-05T20:42:44.238Z,13.4
2023-04-05T20:57:46.172Z,11.6
2023-04-05T21:12:45.639Z,11.8
2023-04-05T21:27:45.917Z,12
2023-04-05T21:42:47.397Z,13
2023-04-05T21:57:47.149Z,11.6
2023-04-05T22:00:42.642Z,12
2023-04-05T22:15:35.417Z,12.7
2023-04-05T22:30:44.768Z,13.8
2023-04-05T22:45:36.921Z,16.8
2023-04-05T23:00:38.273Z,13.9
2023-04-05T23:15:38.501Z,15.3
2023-04-05T23:30:38.466Z,18.3
2023-04-05T23:45:39.541Z,16.8
